Terminal Aerodrome Forecast
Issued by NWS Memphis, TN

Home | Current Version | Previous Version | Text Only | Print | Product List | Glossary On
Versions: 1 2 3 4 5 6 7 8 9 10 11 12 13 14 15 16 17 18 19 20 21 22 23 24 25 26 27 28
400
FTUS44 KMEG 242051 AAB
TAFMEM
TAF AMD
KMEM 242051Z 2421/2524 15007KT P6SM VCTS SCT045CB BKN070
      TEMPO 2421/2423 VRB10G15KT 6SM -SHRA BKN045
     FM250100 VRB03KT P6SM VCSH SCT050 BKN200
     FM251500 20004KT P6SM FEW040 SCT250
     FM251800 23005KT P6SM VCTS SCT040CB=

USA.gov is the U.S. government's official web portal to all federal, state and local government web resources and services.